createdAt,value
2019-05-13T00:00:45.822Z,43.25
2019-05-13T00:01:54.000Z,42.18
2019-05-13T00:03:03.369Z,41.95
2019-05-13T00:04:09.351Z,41.77
2019-05-13T00:05:16.410Z,42.03
2019-05-13T00:06:23.805Z,42.02
2019-05-13T00:07:31.027Z,42.65
2019-05-13T00:08:39.236Z,41.91
2019-05-13T00:09:46.457Z,41.65
2019-05-13T00:10:54.162Z,41.59
2019-05-13T00:12:01.244Z,41.57
2019-05-13T00:13:07.714Z,41.42
2019-05-13T00:14:14.715Z,41.95
2019-05-13T00:15:21.235Z,41.78
2019-05-13T00:16:28.435Z,42.22
2019-05-13T00:17:35.165Z,42.09
2019-05-13T00:18:44.409Z,41.93
2019-05-13T00:19:53.214Z,42.06
2019-05-13T00:20:59.935Z,42.01
2019-05-13T00:22:06.366Z,42.02
2019-05-13T00:23:14.524Z,42.13
2019-05-13T00:24:24.133Z,41.81
2019-05-13T00:25:30.749Z,41.78
2019-05-13T00:26:37.420Z,42.26
2019-05-13T00:27:44.688Z,42.05
2019-05-13T00:28:53.406Z,41.53
2019-05-13T00:30:00.317Z,41.62
2019-05-13T00:31:07.065Z,41.57
2019-05-13T00:32:14.301Z,41.84
2019-05-13T00:33:20.835Z,41.58
2019-05-13T00:34:28.013Z,41.94
2019-05-13T00:35:34.392Z,41.79
2019-05-13T00:36:44.354Z,41.83
2019-05-13T00:37:49.770Z,41.69
2019-05-13T00:38:56.926Z,41.38
2019-05-13T00:40:04.122Z,41.41
2019-05-13T00:41:11.038Z,41.59
2019-05-13T00:42:17.681Z,41.41
2019-05-13T00:43:24.872Z,41.68
2019-05-13T00:44:33.578Z,41.60
2019-05-13T00:45:39.989Z,41.55
2019-05-13T00:46:46.349Z,41.48
2019-05-13T00:47:53.759Z,41.62
2019-05-13T00:49:00.216Z,41.70
2019-05-13T00:50:07.679Z,41.47
2019-05-13T00:51:14.284Z,41.81
2019-05-13T00:52:23.465Z,42.07
2019-05-13T00:53:30.398Z,41.86
2019-05-13T00:54:37.388Z,41.64
2019-05-13T00:55:44.472Z,41.82
2019-05-13T00:56:51.568Z,41.98
2019-05-13T00:57:58.016Z,41.88
2019-05-13T00:59:05.010Z,41.53
2019-05-13T01:00:13.829Z,41.62
2019-05-13T01:01:20.206Z,41.21
2019-05-13T01:02:26.578Z,41.36
2019-05-13T01:03:35.245Z,41.40
2019-05-13T01:04:41.606Z,41.41
2019-05-13T01:05:49.614Z,43.47
2019-05-13T01:06:56.251Z,41.53
2019-05-13T01:08:04.281Z,41.50
2019-05-13T01:09:10.970Z,41.72
2019-05-13T01:10:18.040Z,41.70
2019-05-13T01:11:24.504Z,41.79
2019-05-13T01:12:31.424Z,41.29
2019-05-13T01:13:38.176Z,41.29
2019-05-13T01:14:45.276Z,41.37
2019-05-13T01:15:51.656Z,41.37
2019-05-13T01:16:58.884Z,41.29
2019-05-13T01:18:05.526Z,41.21
2019-05-13T01:19:14.327Z,41.23
2019-05-13T01:20:20.728Z,42.60
2019-05-13T01:21:27.900Z,41.34
2019-05-13T01:22:34.563Z,41.13
2019-05-13T01:23:43.886Z,40.93
2019-05-13T01:24:49.859Z,40.96
2019-05-13T01:25:56.926Z,41.05
2019-05-13T01:27:04.072Z,41.19
2019-05-13T01:28:13.464Z,41.11
2019-05-13T01:29:19.655Z,41.07
2019-05-13T01:30:27.051Z,40.98
2019-05-13T01:31:34.405Z,40.97
2019-05-13T01:32:41.679Z,41.58
2019-05-13T01:33:48.315Z,41.16
2019-05-13T01:34:55.277Z,40.75
2019-05-13T01:36:04.977Z,40.92
2019-05-13T01:37:10.269Z,40.98
2019-05-13T01:38:16.606Z,40.97
2019-05-13T01:39:24.298Z,41.04
2019-05-13T01:40:30.883Z,40.93
2019-05-13T01:41:37.887Z,40.88
2019-05-13T01:42:44.656Z,41.15
2019-05-13T01:43:54.204Z,41.39
2019-05-13T01:44:59.800Z,41.24
2019-05-13T01:46:07.166Z,41.36
2019-05-13T01:47:13.748Z,41.15
2019-05-13T01:48:20.802Z,41.07
2019-05-13T01:49:27.181Z,41.28
2019-05-13T01:50:34.225Z,41.47
2019-05-13T01:51:40.672Z,41.63
2019-05-13T01:52:48.493Z,41.14
2019-05-13T01:53:54.988Z,41.32
2019-05-13T01:55:04.106Z,41.46
2019-05-13T01:56:11.561Z,41.39
2019-05-13T01:57:18.493Z,41.51
2019-05-13T01:58:24.895Z,41.40
2019-05-13T01:59:33.977Z,41.34
2019-05-13T02:00:44.024Z,41.53
2019-05-13T02:01:50.377Z,41.18
2019-05-13T02:02:57.104Z,41.00
2019-05-13T02:04:04.276Z,41.16
2019-05-13T02:05:10.923Z,41.82
2019-05-13T02:06:17.811Z,41.91
2019-05-13T02:07:24.457Z,41.20
2019-05-13T02:08:33.656Z,41.25
2019-05-13T02:09:40.363Z,41.65
2019-05-13T02:10:53.857Z,41.28
2019-05-13T02:11:59.197Z,41.44
2019-05-13T02:13:06.128Z,41.42
2019-05-13T02:14:13.251Z,41.57
2019-05-13T02:15:20.480Z,41.52
2019-05-13T02:16:27.168Z,41.85
2019-05-13T02:17:34.273Z,41.17
2019-05-13T02:18:40.624Z,42.43
2019-05-13T02:19:47.521Z,41.65
2019-05-13T02:20:56.037Z,41.22
2019-05-13T02:22:04.014Z,40.95
2019-05-13T02:23:10.988Z,41.03
2019-05-13T02:24:18.032Z,41.13
2019-05-13T02:25:24.987Z,42.03
2019-05-13T02:26:31.891Z,42.56
2019-05-13T02:27:38.269Z,41.38
2019-05-13T02:28:45.243Z,42.41
2019-05-13T02:29:53.920Z,41.24
2019-05-13T02:31:00.693Z,41.08
2019-05-13T02:32:07.136Z,41.43
2019-05-13T02:33:14.066Z,40.86
2019-05-13T02:34:23.223Z,40.41
2019-05-13T02:35:32.259Z,40.57
2019-05-13T02:36:37.298Z,41.57
2019-05-13T02:37:44.255Z,42.17
2019-05-13T02:38:53.190Z,42.66
2019-05-13T02:40:03.205Z,41.37
2019-05-13T02:41:08.955Z,41.15
2019-05-13T02:42:15.954Z,41.07
2019-05-13T02:43:23.676Z,40.86
2019-05-13T02:44:33.317Z,40.94
2019-05-13T02:45:42.676Z,41.08
2019-05-13T02:46:48.373Z,40.92
2019-05-13T02:47:54.874Z,40.71
2019-05-13T02:49:03.279Z,40.90
2019-05-13T02:50:12.878Z,41.14
2019-05-13T02:51:23.067Z,40.81
2019-05-13T02:52:28.306Z,40.81
2019-05-13T02:53:35.597Z,40.88
2019-05-13T02:54:42.679Z,40.76
2019-05-13T02:55:52.440Z,40.91
2019-05-13T02:56:57.931Z,42.34
2019-05-13T02:58:04.922Z,41.23
2019-05-13T02:59:13.254Z,41.11
2019-05-13T03:00:23.432Z,41.06
2019-05-13T03:01:28.867Z,41.44
2019-05-13T03:02:35.839Z,41.46
2019-05-13T03:03:44.385Z,41.73
2019-05-13T03:04:52.381Z,41.81
2019-05-13T03:05:59.023Z,42.04
2019-05-13T03:07:05.980Z,42.23
2019-05-13T03:08:12.944Z,41.60
2019-05-13T03:09:22.964Z,41.47
2019-05-13T03:10:28.641Z,41.35
2019-05-13T03:11:35.843Z,41.23
2019-05-13T03:12:42.893Z,42.24
2019-05-13T03:13:52.905Z,41.35
2019-05-13T03:14:58.251Z,40.91
2019-05-13T03:16:18.571Z,41.31
2019-05-13T03:17:29.060Z,41.84
2019-05-13T03:18:35.973Z,41.37
2019-05-13T03:19:43.529Z,41.22
2019-05-13T03:20:53.014Z,40.93
2019-05-13T03:21:59.039Z,41.04
2019-05-13T03:23:05.797Z,41.08
2019-05-13T03:24:13.507Z,41.36
2019-05-13T03:25:22.681Z,41.32
2019-05-13T03:26:32.024Z,40.84
2019-05-13T03:27:36.806Z,40.57
2019-05-13T03:28:44.211Z,40.81
2019-05-13T03:29:53.392Z,41.36
2019-05-13T03:31:05.438Z,41.23
2019-05-13T03:32:08.034Z,40.92
2019-05-13T03:33:19.224Z,40.92
2019-05-13T03:34:26.473Z,42.53
2019-05-13T03:35:36.593Z,41.51
2019-05-13T03:36:45.836Z,41.52
2019-05-13T03:37:52.619Z,40.80
2019-05-13T03:39:05.796Z,40.82
2019-05-13T03:40:07.433Z,40.68
2019-05-13T03:41:17.859Z,41.59
2019-05-13T03:42:26.979Z,41.16
2019-05-13T03:43:33.647Z,40.89
2019-05-13T03:44:45.143Z,41.76
2019-05-13T03:45:54.723Z,41.48
2019-05-13T03:47:04.530Z,41.09
2019-05-13T03:48:12.517Z,41.53
2019-05-13T03:49:23.436Z,41.07
2019-05-13T03:50:34.163Z,40.90
2019-05-13T03:51:42.672Z,40.93
2019-05-13T03:52:47.730Z,41.05
2019-05-13T03:53:55.100Z,41.10
2019-05-13T03:55:03.115Z,40.79
2019-05-13T03:56:12.889Z,41.10
2019-05-13T03:57:18.680Z,41.01
2019-05-13T03:58:26.276Z,41.02
2019-05-13T03:59:33.582Z,41.00
2019-05-13T04:00:42.669Z,41.21
2019-05-13T04:01:52.331Z,41.17
2019-05-13T04:02:58.128Z,41.15
2019-05-13T04:04:04.646Z,41.25
2019-05-13T04:05:13.317Z,41.14
2019-05-13T04:06:22.341Z,41.10
2019-05-13T04:07:32.416Z,41.02
2019-05-13T04:08:37.282Z,40.93
2019-05-13T04:09:44.316Z,40.85
2019-05-13T04:10:52.520Z,40.95
2019-05-13T04:12:02.835Z,41.03
2019-05-13T04:13:08.185Z,40.97
2019-05-13T04:14:15.494Z,41.02
2019-05-13T04:15:23.609Z,40.77
2019-05-13T04:16:32.313Z,40.85
2019-05-13T04:17:38.954Z,40.97
2019-05-13T04:18:46.872Z,40.89
2019-05-13T04:19:53.272Z,40.74
2019-05-13T04:21:02.774Z,41.49
2019-05-13T04:22:08.876Z,40.84
2019-05-13T04:23:16.435Z,40.87
2019-05-13T04:24:23.321Z,40.71
2019-05-13T04:25:32.212Z,40.92
2019-05-13T04:26:38.834Z,40.82
2019-05-13T04:27:45.906Z,40.95
2019-05-13T04:28:52.831Z,40.88
2019-05-13T04:30:03.417Z,42.20
2019-05-13T04:31:09.078Z,42.19
2019-05-13T04:32:17.556Z,40.98
2019-05-13T04:33:24.009Z,40.93
2019-05-13T04:34:33.816Z,40.46
2019-05-13T04:35:42.380Z,40.38
2019-05-13T04:36:48.211Z,40.88
2019-05-13T04:37:54.731Z,40.80
2019-05-13T04:39:03.197Z,40.77
2019-05-13T04:40:12.672Z,40.81
2019-05-13T04:41:22.575Z,41.21
2019-05-13T04:42:27.693Z,41.57
2019-05-13T04:43:35.818Z,41.15
2019-05-13T04:44:43.001Z,41.84
2019-05-13T04:45:52.440Z,41.55
2019-05-13T04:46:59.121Z,41.95
2019-05-13T04:48:06.158Z,42.14
2019-05-13T04:49:12.714Z,41.79
2019-05-13T04:50:22.393Z,42.34
2019-05-13T04:51:28.017Z,42.21
2019-05-13T04:52:35.056Z,42.39
2019-05-13T04:53:42.586Z,41.90
2019-05-13T04:54:52.765Z,42.14
2019-05-13T04:55:58.116Z,42.18
2019-05-13T04:57:05.281Z,41.83
2019-05-13T04:58:13.029Z,41.81
2019-05-13T04:59:22.746Z,41.90
2019-05-13T05:00:49.808Z,41.74
2019-05-13T05:02:15.610Z,41.79
2019-05-13T05:03:53.243Z,42.75
2019-05-13T05:05:21.629Z,41.54
2019-05-13T05:06:32.843Z,41.34
2019-05-13T05:08:12.034Z,41.16
2019-05-13T05:09:42.901Z,41.20
2019-05-13T05:10:57.005Z,40.83
2019-05-13T05:12:36.463Z,40.72
2019-05-13T05:14:19.221Z,41.47
2019-05-13T05:15:54.025Z,41.41
2019-05-13T05:17:06.557Z,41.51
2019-05-13T05:18:37.477Z,41.89
2019-05-13T05:20:07.624Z,41.75
2019-05-13T05:21:26.864Z,44.44
2019-05-13T05:22:57.471Z,41.79
2019-05-13T05:24:28.202Z,41.51
2019-05-13T05:25:37.776Z,41.49
2019-05-13T05:27:02.242Z,42.61
2019-05-13T05:28:41.825Z,41.36
2019-05-13T05:29:57.242Z,41.07
2019-05-13T05:31:32.661Z,41.22
2019-05-13T05:33:11.382Z,41.28
2019-05-13T05:34:21.902Z,41.16
2019-05-13T05:35:52.876Z,41.25
2019-05-13T05:37:18.493Z,41.40
2019-05-13T05:38:57.356Z,41.36
2019-05-13T05:40:05.525Z,41.65
2019-05-13T05:41:15.453Z,41.15
2019-05-13T05:42:24.945Z,41.12
2019-05-13T05:43:32.286Z,41.14
2019-05-13T05:44:42.179Z,40.98
2019-05-13T05:45:51.162Z,41.07
2019-05-13T05:47:02.620Z,41.02
2019-05-13T05:48:09.158Z,40.91
2019-05-13T05:49:17.579Z,41.36
2019-05-13T05:50:24.928Z,40.91
2019-05-13T05:51:33.281Z,40.84
2019-05-13T05:52:42.101Z,41.27
2019-05-13T05:53:51.869Z,41.31
2019-05-13T05:55:02.388Z,41.33
2019-05-13T05:56:12.369Z,41.38
2019-05-13T05:57:22.244Z,41.33
2019-05-13T05:58:31.544Z,41.72
2019-05-13T05:59:42.639Z,41.85
2019-05-13T06:00:52.043Z,41.66
2019-05-13T06:02:01.923Z,41.84
2019-05-13T06:03:08.772Z,42.85
2019-05-13T06:04:15.592Z,41.52
2019-05-13T06:05:24.565Z,41.62
2019-05-13T06:06:32.895Z,41.54
2019-05-13T06:07:42.139Z,41.30
2019-05-13T06:08:51.494Z,41.57
2019-05-13T06:09:57.809Z,41.28
2019-05-13T06:11:04.950Z,41.74
2019-05-13T06:12:12.787Z,41.14
2019-05-13T06:13:21.465Z,40.86
2019-05-13T06:14:27.956Z,41.05
2019-05-13T06:15:35.428Z,40.88
2019-05-13T06:16:42.674Z,40.92
2019-05-13T06:17:51.694Z,40.82
2019-05-13T06:18:58.004Z,40.90
2019-05-13T06:20:08.970Z,41.27
2019-05-13T06:21:15.831Z,41.22
2019-05-13T06:22:22.705Z,41.60
2019-05-13T06:23:31.333Z,41.56
2019-05-13T06:24:42.136Z,41.25
2019-05-13T06:25:52.404Z,41.59
2019-05-13T06:26:58.608Z,41.93
2019-05-13T06:28:05.536Z,41.58
2019-05-13T06:29:12.455Z,41.77
2019-05-13T06:30:21.540Z,41.85
2019-05-13T06:31:27.788Z,41.91
2019-05-13T06:32:34.467Z,42.07
2019-05-13T06:33:42.179Z,42.07
2019-05-13T06:34:52.473Z,41.54
2019-05-13T06:36:01.187Z,41.68
2019-05-13T06:37:07.993Z,41.73
2019-05-13T06:38:14.841Z,41.74
2019-05-13T06:39:22.201Z,41.84
2019-05-13T06:40:29.121Z,41.96
2019-05-13T06:41:37.302Z,42.10
2019-05-13T06:42:44.144Z,42.29
2019-05-13T06:43:52.421Z,42.31
2019-05-13T06:45:01.734Z,42.41
2019-05-13T06:46:08.221Z,42.11
2019-05-13T06:47:16.547Z,42.64
2019-05-13T06:48:25.737Z,42.51
2019-05-13T06:49:32.777Z,42.45
2019-05-13T06:50:41.637Z,42.69
2019-05-13T06:51:52.723Z,42.90
2019-05-13T06:53:01.536Z,42.93
2019-05-13T06:54:11.303Z,42.74
2019-05-13T06:55:21.272Z,42.36
2019-05-13T06:56:28.313Z,42.38
2019-05-13T06:57:34.963Z,42.19
2019-05-13T06:58:41.907Z,42.22
2019-05-13T06:59:52.381Z,42.40
2019-05-13T07:01:03.112Z,42.30
2019-05-13T07:02:07.957Z,43.11
2019-05-13T07:03:14.686Z,42.10
2019-05-13T07:04:22.023Z,42.00
2019-05-13T07:05:28.859Z,41.97
2019-05-13T07:06:35.444Z,41.95
2019-05-13T07:07:42.546Z,41.46
2019-05-13T07:08:52.234Z,41.08
2019-05-13T07:10:02.248Z,41.07
2019-05-13T07:11:17.604Z,41.46
2019-05-13T07:12:16.039Z,41.45
2019-05-13T07:13:23.626Z,41.60
2019-05-13T07:14:32.610Z,41.36
2019-05-13T07:15:41.647Z,41.25
2019-05-13T07:16:48.721Z,41.34
2019-05-13T07:17:55.372Z,41.29
2019-05-13T07:19:02.727Z,41.21
2019-05-13T07:20:11.673Z,41.01
2019-05-13T07:21:18.748Z,41.03
2019-05-13T07:22:26.872Z,40.80
2019-05-13T07:23:37.068Z,40.68
2019-05-13T07:24:45.550Z,40.55
2019-05-13T07:25:52.796Z,40.67
2019-05-13T07:27:01.847Z,40.88
2019-05-13T07:28:09.027Z,41.35
2019-05-13T07:29:15.930Z,40.79
2019-05-13T07:30:34.729Z,40.75
2019-05-13T07:31:42.238Z,40.88
2019-05-13T07:32:49.127Z,40.91
2019-05-13T07:33:55.825Z,40.97
2019-05-13T07:35:03.997Z,41.04
2019-05-13T07:36:13.350Z,41.08
2019-05-13T07:37:22.043Z,41.05
2019-05-13T07:38:32.350Z,41.32
2019-05-13T07:39:47.561Z,41.31
2019-05-13T07:40:55.047Z,40.83
2019-05-13T07:41:57.495Z,40.82
2019-05-13T07:43:01.705Z,40.92
2019-05-13T07:44:03.850Z,41.15
2019-05-13T07:45:06.137Z,41.45
2019-05-13T07:46:08.262Z,41.10
2019-05-13T07:47:11.689Z,40.77
2019-05-13T07:48:21.065Z,42.26
2019-05-13T07:49:17.803Z,41.11
2019-05-13T07:50:21.904Z,40.35
2019-05-13T07:51:23.688Z,40.48
2019-05-13T07:52:25.724Z,42.78
2019-05-13T07:53:28.979Z,40.46
2019-05-13T07:54:32.912Z,41.04
2019-05-13T07:55:34.965Z,40.58
2019-05-13T07:56:37.065Z,41.01
2019-05-13T07:57:39.014Z,39.96
2019-05-13T07:58:41.852Z,39.76
2019-05-13T07:59:44.059Z,39.61
2019-05-13T08:00:46.197Z,39.89
2019-05-13T08:01:48.355Z,39.68
2019-05-13T08:02:52.292Z,39.70
2019-05-13T08:03:54.176Z,39.69
2019-05-13T08:04:56.033Z,39.54
2019-05-13T08:05:58.321Z,40.01
2019-05-13T08:07:01.994Z,40.24
2019-05-13T08:08:05.032Z,39.79
2019-05-13T08:09:07.564Z,39.55
2019-05-13T08:10:11.614Z,39.54
2019-05-13T08:11:14.053Z,39.34
2019-05-13T08:12:17.753Z,39.46
2019-05-13T08:13:22.284Z,39.39
2019-05-13T08:14:23.999Z,39.04
2019-05-13T08:15:25.894Z,39.21
2019-05-13T08:16:32.129Z,39.07
2019-05-13T08:17:34.132Z,39.39
2019-05-13T08:18:36.023Z,39.70
2019-05-13T08:19:38.022Z,39.55
2019-05-13T08:20:42.035Z,39.22
2019-05-13T08:21:44.274Z,39.68
2019-05-13T08:22:46.244Z,39.75
2019-05-13T08:23:48.756Z,40.03
2019-05-13T08:24:54.056Z,39.96
2019-05-13T08:25:54.932Z,39.94
2019-05-13T08:26:57.021Z,40.25
2019-05-13T08:27:59.018Z,40.11
2019-05-13T08:29:05.387Z,40.12
2019-05-13T08:30:08.504Z,39.74
2019-05-13T08:31:12.042Z,40.10
2019-05-13T08:32:14.101Z,40.12
2019-05-13T08:33:16.162Z,39.76
2019-05-13T08:34:18.236Z,39.80
2019-05-13T08:35:22.437Z,40.21
2019-05-13T08:36:24.568Z,40.08
2019-05-13T08:37:26.832Z,39.86
2019-05-13T08:38:32.009Z,40.08
2019-05-13T08:39:38.445Z,40.12
2019-05-13T08:40:38.023Z,40.20
2019-05-13T08:41:42.355Z,40.31
2019-05-13T08:42:45.052Z,40.46
2019-05-13T08:43:47.145Z,40.03
2019-05-13T08:44:52.019Z,40.00
2019-05-13T08:45:55.638Z,39.92
2019-05-13T08:46:58.927Z,40.18
2019-05-13T08:48:02.190Z,40.24
2019-05-13T08:49:06.351Z,40.39
2019-05-13T08:50:11.925Z,40.54
2019-05-13T08:51:13.825Z,40.66
2019-05-13T08:52:17.374Z,40.49
2019-05-13T08:53:21.034Z,40.58
2019-05-13T08:54:22.818Z,40.58
2019-05-13T08:55:24.799Z,42.49
2019-05-13T08:56:26.746Z,40.78
2019-05-13T08:57:28.781Z,40.72
2019-05-13T08:58:32.022Z,40.55
2019-05-13T08:59:34.238Z,40.56
2019-05-13T09:00:52.899Z,40.43
2019-05-13T09:01:55.572Z,40.40
2019-05-13T09:02:57.623Z,40.36
2019-05-13T09:04:02.339Z,40.63
2019-05-13T09:05:06.844Z,40.82
2019-05-13T09:06:11.499Z,40.90
2019-05-13T09:07:13.434Z,40.56
2019-05-13T09:08:16.409Z,40.75
2019-05-13T09:09:18.569Z,40.70
2019-05-13T09:10:21.441Z,40.81
2019-05-13T09:11:26.931Z,40.79
2019-05-13T09:12:35.175Z,40.71
2019-05-13T09:13:34.506Z,40.60
2019-05-13T09:14:36.796Z,40.51
2019-05-13T09:15:42.248Z,40.71
2019-05-13T09:16:44.494Z,40.78
2019-05-13T09:17:46.629Z,40.66
2019-05-13T09:18:51.795Z,40.83
2019-05-13T09:19:54.634Z,41.07
2019-05-13T09:20:56.387Z,40.79
2019-05-13T09:22:02.813Z,40.87
2019-05-13T09:23:03.745Z,40.91
2019-05-13T09:24:20.664Z,41.11
2019-05-13T09:25:12.788Z,40.44
2019-05-13T09:26:14.392Z,40.59
2019-05-13T09:27:16.464Z,40.24
2019-05-13T09:28:18.802Z,40.31
2019-05-13T09:29:22.528Z,40.45
2019-05-13T09:30:27.257Z,40.53
2019-05-13T09:31:28.821Z,40.45
2019-05-13T09:32:31.779Z,40.56
2019-05-13T09:33:34.080Z,40.83
2019-05-13T09:34:36.075Z,40.56
2019-05-13T09:35:38.125Z,40.96
2019-05-13T09:36:41.742Z,40.80
2019-05-13T09:37:44.125Z,41.20
2019-05-13T09:38:46.298Z,40.67
2019-05-13T09:39:51.646Z,40.55
2019-05-13T09:40:54.119Z,40.13
2019-05-13T09:41:56.102Z,40.09
2019-05-13T09:42:58.318Z,40.13
2019-05-13T09:44:02.213Z,40.09
2019-05-13T09:45:05.711Z,41.50
2019-05-13T09:46:08.399Z,41.37
2019-05-13T09:47:12.415Z,39.90
2019-05-13T09:48:14.607Z,39.65
2019-05-13T09:49:20.070Z,39.49
2019-05-13T09:50:29.299Z,39.23
2019-05-13T09:51:26.051Z,39.85
2019-05-13T09:52:28.216Z,39.94
2019-05-13T09:53:32.517Z,40.20
2019-05-13T09:54:35.092Z,40.05
2019-05-13T09:55:37.047Z,39.99
2019-05-13T09:56:42.426Z,39.64
2019-05-13T09:57:44.395Z,39.59
2019-05-13T09:58:46.336Z,39.53
2019-05-13T09:59:48.298Z,39.38
2019-05-13T10:00:52.621Z,39.44
2019-05-13T10:01:54.368Z,39.08
2019-05-13T10:02:56.418Z,39.28
2019-05-13T10:03:58.582Z,39.10
2019-05-13T10:05:02.276Z,39.07
2019-05-13T10:06:04.636Z,39.30
2019-05-13T10:07:08.626Z,39.30
2019-05-13T10:08:12.513Z,39.23
2019-05-13T10:09:14.920Z,39.32
2019-05-13T10:10:17.040Z,39.43
2019-05-13T10:11:21.527Z,39.47
2019-05-13T10:12:24.544Z,39.59
2019-05-13T10:13:27.112Z,39.62
2019-05-13T10:14:29.356Z,39.42
2019-05-13T10:15:32.909Z,39.31
2019-05-13T10:16:37.280Z,39.39
2019-05-13T10:17:42.782Z,39.61
2019-05-13T10:18:43.979Z,39.68
2019-05-13T10:19:45.970Z,39.35
2019-05-13T10:20:57.877Z,39.73
2019-05-13T10:21:59.423Z,40.07
2019-05-13T10:23:01.836Z,39.04
2019-05-13T10:24:04.646Z,38.91
2019-05-13T10:25:12.767Z,38.98
2019-05-13T10:26:15.301Z,39.15
2019-05-13T10:27:18.985Z,38.83
2019-05-13T10:28:22.466Z,38.91
2019-05-13T10:29:24.611Z,39.17
2019-05-13T10:30:26.382Z,39.06
2019-05-13T10:31:28.543Z,38.80
2019-05-13T10:32:32.445Z,38.68
2019-05-13T10:33:34.788Z,38.57
2019-05-13T10:34:36.898Z,38.36
2019-05-13T10:35:42.926Z,38.54
2019-05-13T10:36:45.163Z,38.22
2019-05-13T10:37:49.690Z,38.36
2019-05-13T10:38:53.421Z,38.32
2019-05-13T10:39:55.334Z,38.32
2019-05-13T10:40:57.683Z,38.12
2019-05-13T10:42:03.125Z,38.09
2019-05-13T10:43:04.192Z,38.58
2019-05-13T10:44:06.030Z,37.98
2019-05-13T10:45:08.249Z,37.80
2019-05-13T10:46:12.717Z,38.01
2019-05-13T10:47:14.141Z,37.08
2019-05-13T10:48:16.149Z,37.02
2019-05-13T10:49:18.455Z,37.16
2019-05-13T10:50:27.426Z,36.65
2019-05-13T10:51:27.299Z,36.26
2019-05-13T10:52:31.756Z,36.45
2019-05-13T10:53:33.384Z,36.71
2019-05-13T10:54:35.144Z,37.05
2019-05-13T10:55:37.217Z,37.17
2019-05-13T10:56:39.488Z,35.52
2019-05-13T10:57:42.402Z,35.56
2019-05-13T10:58:44.699Z,36.94
2019-05-13T10:59:46.862Z,35.96
2019-05-13T11:00:52.312Z,37.25
2019-05-13T11:01:54.551Z,36.28
2019-05-13T11:02:56.476Z,35.63
2019-05-13T11:03:58.583Z,35.70
2019-05-13T11:05:02.981Z,35.80
2019-05-13T11:06:04.793Z,36.31
2019-05-13T11:07:07.189Z,36.09
2019-05-13T11:08:09.410Z,36.01
2019-05-13T11:09:12.993Z,36.15
2019-05-13T11:10:22.246Z,35.84
2019-05-13T11:11:24.753Z,35.84
2019-05-13T11:12:28.633Z,35.14
2019-05-13T11:13:50.121Z,36.77
2019-05-13T11:14:34.070Z,35.39
2019-05-13T11:15:41.142Z,35.44
2019-05-13T11:16:42.700Z,35.25
2019-05-13T11:17:46.534Z,35.44
2019-05-13T11:18:51.698Z,35.28
2019-05-13T11:19:53.565Z,35.88
2019-05-13T11:20:55.502Z,36.69
2019-05-13T11:21:57.581Z,35.58
2019-05-13T11:22:59.504Z,36.02
2019-05-13T11:24:03.425Z,36.27
2019-05-13T11:25:05.561Z,35.52
2019-05-13T11:26:07.642Z,36.01
2019-05-13T11:27:11.938Z,35.48
2019-05-13T11:28:13.985Z,35.24
2019-05-13T11:29:19.205Z,34.93
2019-05-13T11:30:23.621Z,34.90
2019-05-13T11:31:25.380Z,35.94
2019-05-13T11:32:27.083Z,35.28
2019-05-13T11:33:31.583Z,34.57
2019-05-13T11:34:33.477Z,34.34
2019-05-13T11:35:35.489Z,34.54
2019-05-13T11:36:37.446Z,34.50
2019-05-13T11:37:43.494Z,34.81
2019-05-13T11:38:45.051Z,34.43
2019-05-13T11:39:47.564Z,34.71
2019-05-13T11:40:52.372Z,34.96
2019-05-13T11:41:53.717Z,34.48
2019-05-13T11:42:55.723Z,33.90
2019-05-13T11:44:11.891Z,34.02
2019-05-13T11:45:02.011Z,34.13
2019-05-13T11:46:06.835Z,33.80
2019-05-13T11:47:09.286Z,33.67
2019-05-13T11:48:13.135Z,34.06
2019-05-13T11:49:15.606Z,33.58
2019-05-13T11:50:18.364Z,33.59
2019-05-13T11:51:24.126Z,33.36
2019-05-13T11:52:25.152Z,33.35
2019-05-13T11:53:32.908Z,33.47
2019-05-13T11:54:31.725Z,33.46
2019-05-13T11:55:33.798Z,34.44
2019-05-13T11:56:35.474Z,33.54
2019-05-13T11:57:38.657Z,33.53
2019-05-13T11:58:43.206Z,34.73
2019-05-13T11:59:46.241Z,33.66
2019-05-13T12:00:53.214Z,34.28
2019-05-13T12:01:55.222Z,33.41
2019-05-13T12:02:57.455Z,33.47
2019-05-13T12:04:02.453Z,33.40
2019-05-13T12:05:08.624Z,34.33
2019-05-13T12:06:12.792Z,34.11
2019-05-13T12:07:14.803Z,33.18
2019-05-13T12:08:17.009Z,32.96
2019-05-13T12:09:21.979Z,32.85
2019-05-13T12:10:22.995Z,32.81
2019-05-13T12:11:24.602Z,33.01
2019-05-13T12:12:30.651Z,33.19
2019-05-13T12:13:32.806Z,32.95
2019-05-13T12:14:48.503Z,33.18
2019-05-13T12:15:48.721Z,33.18
2019-05-13T12:16:46.737Z,32.84
2019-05-13T12:17:49.007Z,32.90
2019-05-13T12:18:52.510Z,33.08
2019-05-13T12:19:55.016Z,32.83
2019-05-13T12:20:57.123Z,32.57
2019-05-13T12:22:01.805Z,32.43
2019-05-13T12:23:03.640Z,33.13
2019-05-13T12:24:10.436Z,33.03
2019-05-13T12:25:13.094Z,32.43
2019-05-13T12:26:13.823Z,33.17
2019-05-13T12:27:16.389Z,32.53
2019-05-13T12:28:18.434Z,32.37
2019-05-13T12:29:20.301Z,32.70
2019-05-13T12:30:22.845Z,32.69
2019-05-13T12:31:25.001Z,32.24
2019-05-13T12:32:27.174Z,32.20
2019-05-13T12:34:40.898Z,32.08
2019-05-13T12:35:40.584Z,32.07
2019-05-13T12:36:43.240Z,32.43
2019-05-13T12:37:45.509Z,32.26
2019-05-13T12:38:47.605Z,32.98
2019-05-13T12:39:53.216Z,32.02
2019-05-13T12:40:54.632Z,32.02
2019-05-13T12:41:57.082Z,32.63
2019-05-13T12:43:01.336Z,32.34
2019-05-13T12:44:03.163Z,31.85
2019-05-13T12:45:10.275Z,32.03
2019-05-13T12:46:12.604Z,31.44
2019-05-13T12:47:14.735Z,31.24
2019-05-13T12:48:16.777Z,32.38
2019-05-13T12:49:21.465Z,31.63
2019-05-13T12:50:23.949Z,31.34
2019-05-13T12:51:26.099Z,31.54
2019-05-13T12:52:28.097Z,32.91
2019-05-13T12:53:32.120Z,31.80
2019-05-13T12:54:34.704Z,31.94
2019-05-13T12:55:36.818Z,31.92
2019-05-13T12:56:39.275Z,32.99
2019-05-13T12:57:41.358Z,32.82
2019-05-13T12:58:43.377Z,31.93
2019-05-13T12:59:46.487Z,31.82
2019-05-13T13:00:49.499Z,31.61
2019-05-13T13:01:52.749Z,32.19
2019-05-13T13:02:55.113Z,32.03
2019-05-13T13:03:57.423Z,31.36
2019-05-13T13:05:13.365Z,31.73
2019-05-13T13:06:25.065Z,31.86
2019-05-13T13:07:08.263Z,31.81
2019-05-13T13:08:20.955Z,32.11
2019-05-13T13:09:14.333Z,31.99
2019-05-13T13:10:18.370Z,32.43
2019-05-13T13:11:22.800Z,31.58
2019-05-13T13:12:34.536Z,31.79
2019-05-13T13:13:54.118Z,33.73
2019-05-13T13:14:39.573Z,31.93
2019-05-13T13:15:48.416Z,31.83
2019-05-13T13:16:47.399Z,32.09
2019-05-13T13:17:53.904Z,31.64
2019-05-13T13:18:54.373Z,31.72
2019-05-13T13:20:06.196Z,31.79
2019-05-13T13:22:08.073Z,32.15
2019-05-13T13:23:12.595Z,33.00
2019-05-13T13:24:14.402Z,32.20
2019-05-13T13:25:17.579Z,32.21
2019-05-13T13:26:21.745Z,32.37
2019-05-13T13:27:47.038Z,32.47
2019-05-13T13:28:29.325Z,31.92
2019-05-13T13:29:34.003Z,32.12
2019-05-13T13:30:36.291Z,32.21
2019-05-13T13:31:38.417Z,32.04
2019-05-13T13:32:45.128Z,32.05
2019-05-13T13:33:46.422Z,31.93
2019-05-13T13:34:54.632Z,31.94
2019-05-13T13:35:59.410Z,32.38
2019-05-13T13:36:58.348Z,32.04
2019-05-13T13:38:04.060Z,32.18
2019-05-13T13:39:06.182Z,32.45
2019-05-13T13:40:08.407Z,32.38
2019-05-13T13:41:11.031Z,32.83
2019-05-13T13:42:14.054Z,32.32
2019-05-13T13:43:16.194Z,32.43
2019-05-13T13:44:17.909Z,32.67
2019-05-13T13:45:22.754Z,32.35
2019-05-13T13:46:36.330Z,32.89
2019-05-13T13:47:32.451Z,32.82
2019-05-13T13:48:34.081Z,32.75
2019-05-13T13:49:43.681Z,32.81
2019-05-13T13:50:46.052Z,32.73
2019-05-13T13:51:48.128Z,33.73
2019-05-13T13:52:52.752Z,32.98
2019-05-13T13:53:56.412Z,33.07
2019-05-13T13:55:03.461Z,32.72
2019-05-13T13:56:02.680Z,32.83
2019-05-13T13:57:04.793Z,32.63
2019-05-13T13:58:06.717Z,32.26
2019-05-13T13:59:08.795Z,32.37
2019-05-13T14:00:31.739Z,32.41
2019-05-13T14:01:19.890Z,32.72
2019-05-13T14:02:23.946Z,32.34
2019-05-13T14:03:23.748Z,32.43
2019-05-13T14:04:25.365Z,32.52
2019-05-13T14:05:27.478Z,32.55
2019-05-13T14:06:33.065Z,32.09
2019-05-13T14:06:52.390Z,31.91
2019-05-13T14:07:22.470Z,32.06
2019-05-13T14:07:38.660Z,32.21
2019-05-13T14:08:41.554Z,32.68
2019-05-13T14:09:43.923Z,32.75
2019-05-13T14:10:47.078Z,32.58
2019-05-13T14:11:51.558Z,32.72
2019-05-13T14:12:53.531Z,32.96
2019-05-13T14:13:55.545Z,32.75